Hauptseite
METAR-TAF:

METAR-TAF

Flughäfen :

Flughafen Vannes

Vannes, Frankreich

Breite: 47-43-19N, Länge: 2-43-41W, Höhe: 130 m

Beobachtung

Neuester Wetterbericht von vor 22 Minuten, um 06:00 UTC
Wind 10 kt aus Nord/Nordwest, variierte zwischen West/Nordwest und Nord
Temperatur 4°C
Luftfeuchtigkeit 87%
Luftdruck 1000 hPa
Sichtweite 10 km oder mehr
Aufgelockert bewölkt in der Höhe von 2300 ft
Aufgelockert bewölkt in der Höhe von 3900 ft
Geschlossene Wolkendecke in der Höhe von 22000 ft

METAR: LFRV 230600Z AUTO 34010KT 300V010 9999 SCT023 SCT039 OVC220 04/02 Q1000

Zeit: 07:22 (06:22 UTC)


TAF: fehlend

Wetterbeobachtungen und Prognosen von mehr als 4000 Flughäfen (METAR und TAF Bericht).

Die verfügbaren Stationen werden durch gelbe und rote Markierungen auf der Karte dargestellt.

Führen Sie die Maus auf sie, um den Namen der Station zu sehen.

Darauf klicken, um die Beobachtung von Wetterbeobachtungen und Prognosen zu sehen.

Um die Karte zu ändern : klicken Sie auf den grünen Tasten mit einem schwarzen Kreuz Zum Vergrößern, auf den grünen Button mit einem Gedankenstrich zu verkleinern, oder auf die grünen Pfeile für benachbarte Karten.


METAR-TAF: